createdAt,value
2022-12-13T00:01:50.338Z,74.11
2022-12-13T00:04:18.911Z,73.46
2022-12-13T00:06:49.436Z,73.95
2022-12-13T00:09:19.636Z,75.21
2022-12-13T00:11:49.545Z,74.82
2022-12-13T00:14:17.772Z,74.75
2022-12-13T00:16:47.406Z,74.77
2022-12-13T00:19:16.582Z,74.52
2022-12-13T00:21:44.992Z,75.26
2022-12-13T00:24:12.927Z,75.01
2022-12-13T00:26:40.746Z,75.06
2022-12-13T00:29:10.391Z,74.84
2022-12-13T00:31:59.928Z,74.44
2022-12-13T00:34:26.921Z,73.94
2022-12-13T00:36:55.269Z,73.51
2022-12-13T00:39:23.708Z,73.94
2022-12-13T00:41:51.719Z,74.11
2022-12-13T00:44:21.136Z,73.82
2022-12-13T00:46:51.626Z,74.25
2022-12-13T00:49:19.988Z,73.82
2022-12-13T00:51:49.550Z,74.13
2022-12-13T00:54:17.941Z,74.12
2022-12-13T00:56:46.259Z,74.31
2022-12-13T00:59:16.293Z,74.33
2022-12-13T01:01:46.358Z,74.42
2022-12-13T01:04:14.896Z,74.77
2022-12-13T01:06:44.577Z,74.72
2022-12-13T01:09:18.366Z,74.81
2022-12-13T01:11:47.084Z,74.40
2022-12-13T01:14:15.019Z,74.16
2022-12-13T01:16:43.004Z,75.38
2022-12-13T01:19:12.312Z,74.92
2022-12-13T01:21:40.295Z,74.82
2022-12-13T01:24:08.845Z,74.61
2022-12-13T01:26:37.090Z,74.69
2022-12-13T01:29:05.920Z,73.82
2022-12-13T01:31:33.915Z,74.19
2022-12-13T01:34:10.797Z,74.47
2022-12-13T01:36:41.242Z,73.77
2022-12-13T01:39:15.111Z,74.40
2022-12-13T01:41:44.754Z,74.51
2022-12-13T01:44:46.188Z,74.14
2022-12-13T01:47:17.278Z,74.44
2022-12-13T01:49:45.312Z,74.80
2022-12-13T01:52:16.190Z,74.28
2022-12-13T01:54:48.897Z,74.75
2022-12-13T01:57:19.445Z,75.02
2022-12-13T01:59:48.436Z,75.32
2022-12-13T02:02:17.354Z,74.67
2022-12-13T02:04:53.445Z,73.94
2022-12-13T02:07:26.543Z,73.88
2022-12-13T02:09:57.700Z,74.54
2022-12-13T02:12:30.079Z,75.04
2022-12-13T02:15:00.444Z,74.75
2022-12-13T02:17:45.010Z,74.06
2022-12-13T02:20:38.707Z,74.12
2022-12-13T02:23:43.031Z,74.15
2022-12-13T02:26:38.942Z,73.96
2022-12-13T02:29:30.540Z,74.24
2022-12-13T02:32:05.839Z,73.87
2022-12-13T02:34:39.789Z,73.43
2022-12-13T02:37:17.886Z,73.39
2022-12-13T02:39:53.145Z,72.21
2022-12-13T02:42:25.312Z,73.01
2022-12-13T02:44:58.208Z,73.14
2022-12-13T02:47:29.438Z,74.03
2022-12-13T02:50:01.093Z,74.05
2022-12-13T02:52:32.516Z,73.58
2022-12-13T02:55:00.559Z,73.89
2022-12-13T02:57:33.616Z,73.60
2022-12-13T03:00:07.211Z,73.86
2022-12-13T03:02:47.426Z,73.65
2022-12-13T03:05:40.151Z,73.39
2022-12-13T03:08:21.684Z,73.44
2022-12-13T03:11:01.333Z,73.58
2022-12-13T03:13:38.438Z,73.42
2022-12-13T03:16:22.791Z,74.27
2022-12-13T03:18:53.888Z,74.08
2022-12-13T03:21:22.056Z,73.77
2022-12-13T03:23:49.920Z,73.30
2022-12-13T03:26:21.943Z,73.35
2022-12-13T03:28:50.120Z,73.59
2022-12-13T03:31:18.458Z,73.51
2022-12-13T03:33:46.607Z,73.17
2022-12-13T03:36:17.120Z,73.55
2022-12-13T03:38:44.973Z,73.38
2022-12-13T03:41:16.353Z,73.83
2022-12-13T03:43:44.553Z,73.70
2022-12-13T03:46:12.423Z,74.00
2022-12-13T03:48:40.471Z,73.46
2022-12-13T03:51:08.560Z,73.65
2022-12-13T03:53:37.859Z,72.34
2022-12-13T03:56:07.630Z,73.21
2022-12-13T03:58:37.909Z,72.91
2022-12-13T04:01:08.265Z,72.50
2022-12-13T04:03:36.515Z,72.21
2022-12-13T04:06:05.126Z,72.99
2022-12-13T04:08:33.493Z,72.43
2022-12-13T04:11:24.246Z,71.93
2022-12-13T04:13:51.427Z,72.81
2022-12-13T04:16:19.450Z,73.08
2022-12-13T04:18:47.414Z,72.58
2022-12-13T04:21:15.429Z,72.67
2022-12-13T04:23:43.469Z,72.98
2022-12-13T04:26:12.695Z,72.61
2022-12-13T04:28:40.684Z,72.55
2022-12-13T04:31:08.728Z,71.67
2022-12-13T04:33:36.726Z,72.56
2022-12-13T04:36:05.163Z,73.04
2022-12-13T04:38:33.042Z,72.29
2022-12-13T04:41:09.047Z,72.14
2022-12-13T04:43:38.327Z,72.38
2022-12-13T04:46:08.969Z,72.80
2022-12-13T04:48:36.909Z,72.15
2022-12-13T04:51:04.898Z,71.57
2022-12-13T04:53:32.950Z,71.00
2022-12-13T04:56:00.831Z,70.86
2022-12-13T04:58:28.924Z,70.51
2022-12-13T05:00:58.231Z,71.02
2022-12-13T05:03:27.980Z,71.36
2022-12-13T05:05:55.851Z,71.31
2022-12-13T05:08:23.797Z,71.21
2022-12-13T05:10:51.811Z,71.76
2022-12-13T05:13:19.647Z,71.07
2022-12-13T05:15:53.579Z,72.04
2022-12-13T05:18:24.380Z,71.78
2022-12-13T05:20:52.570Z,71.71
2022-12-13T05:23:22.675Z,71.26
2022-12-13T05:25:51.332Z,70.88
2022-12-13T05:28:28.034Z,70.93
2022-12-13T05:30:57.677Z,70.58
2022-12-13T05:33:27.563Z,71.21
2022-12-13T05:36:00.003Z,70.90
2022-12-13T05:38:31.596Z,71.03
2022-12-13T05:40:59.771Z,70.41
2022-12-13T05:43:41.968Z,70.78
2022-12-13T05:46:10.528Z,70.33
2022-12-13T05:48:39.882Z,70.97
2022-12-13T05:51:10.619Z,70.46
2022-12-13T05:53:40.031Z,70.84
2022-12-13T05:56:08.568Z,71.10
2022-12-13T05:58:37.416Z,71.29
2022-12-13T06:01:07.252Z,71.06
2022-12-13T06:03:35.143Z,71.50
2022-12-13T06:06:05.887Z,70.85
2022-12-13T06:08:34.180Z,70.75
2022-12-13T06:11:10.696Z,70.45
2022-12-13T06:13:42.547Z,70.45
2022-12-13T06:16:21.922Z,70.54
2022-12-13T06:18:59.433Z,70.92
2022-12-13T06:21:41.607Z,70.81
2022-12-13T06:24:14.766Z,70.47
2022-12-13T06:26:42.660Z,70.88
2022-12-13T06:29:13.126Z,71.07
2022-12-13T06:32:01.750Z,70.84
2022-12-13T06:34:31.810Z,70.22
2022-12-13T06:37:01.420Z,70.21
2022-12-13T06:39:38.794Z,70.06
2022-12-13T06:42:08.741Z,71.28
2022-12-13T06:44:37.128Z,70.92
2022-12-13T06:47:10.395Z,70.69
2022-12-13T06:49:42.135Z,70.76
2022-12-13T06:52:13.430Z,70.51
2022-12-13T06:54:41.595Z,70.59
2022-12-13T06:57:09.645Z,70.27
2022-12-13T06:59:37.640Z,70.74
2022-12-13T07:02:05.866Z,70.10
2022-12-13T07:04:34.048Z,70.48
2022-12-13T07:07:02.723Z,70.40
2022-12-13T07:09:32.985Z,70.14
2022-12-13T07:12:01.575Z,69.83
2022-12-13T07:14:40.808Z,70.29
2022-12-13T07:17:10.752Z,70.64
2022-12-13T07:19:40.645Z,70.45
2022-12-13T07:22:08.525Z,70.77
2022-12-13T07:24:37.770Z,70.60
2022-12-13T07:27:06.203Z,69.88
2022-12-13T07:29:34.024Z,70.39
2022-12-13T07:32:02.246Z,70.22
2022-12-13T07:34:31.811Z,70.42
2022-12-13T07:36:59.806Z,69.93
2022-12-13T07:39:27.894Z,69.58
2022-12-13T07:41:57.591Z,70.33
2022-12-13T07:44:26.012Z,70.27
2022-12-13T07:46:54.386Z,69.74
2022-12-13T07:49:22.498Z,69.64
2022-12-13T07:51:50.515Z,70.00
2022-12-13T07:54:18.896Z,69.52
2022-12-13T07:56:46.941Z,69.73
2022-12-13T07:59:16.307Z,69.68
2022-12-13T08:01:56.982Z,69.91
2022-12-13T08:04:29.633Z,69.75
2022-12-13T08:07:09.111Z,69.88
2022-12-13T08:09:37.273Z,69.51
2022-12-13T08:12:08.694Z,68.56
2022-12-13T08:14:37.936Z,69.20
2022-12-13T08:17:05.896Z,68.77
2022-12-13T08:19:34.072Z,68.43
2022-12-13T08:22:02.481Z,68.71
2022-12-13T08:24:31.946Z,68.18
2022-12-13T08:27:03.143Z,67.57
2022-12-13T08:29:33.925Z,67.41
2022-12-13T08:32:06.342Z,66.85
2022-12-13T08:34:34.222Z,67.66
2022-12-13T08:37:03.868Z,67.74
2022-12-13T08:39:36.656Z,68.06
2022-12-13T08:42:16.734Z,67.17
2022-12-13T08:44:49.961Z,67.53
2022-12-13T08:47:24.367Z,67.33
2022-12-13T08:49:53.769Z,67.49
2022-12-13T08:52:22.952Z,67.84
2022-12-13T08:54:53.652Z,68.22
2022-12-13T08:57:21.724Z,68.90
2022-12-13T08:59:51.968Z,67.88
2022-12-13T09:02:21.854Z,67.89
2022-12-13T09:04:50.886Z,68.01
2022-12-13T09:07:18.717Z,68.09
2022-12-13T09:09:46.976Z,67.37
2022-12-13T09:12:30.826Z,68.57
2022-12-13T09:15:01.396Z,67.62
2022-12-13T09:17:36.895Z,67.90
2022-12-13T09:20:28.055Z,68.03
2022-12-13T09:23:01.411Z,68.48
2022-12-13T09:25:37.528Z,68.91
2022-12-13T09:28:08.227Z,68.19
2022-12-13T09:30:36.870Z,68.96
2022-12-13T09:33:18.300Z,68.47
2022-12-13T09:35:55.040Z,68.62
2022-12-13T09:38:23.238Z,68.91
2022-12-13T09:40:58.460Z,68.21
2022-12-13T09:43:42.339Z,67.99
2022-12-13T09:46:22.726Z,68.13
2022-12-13T09:49:01.132Z,67.89
2022-12-13T09:51:43.693Z,67.70
2022-12-13T09:54:20.767Z,66.68
2022-12-13T09:56:51.163Z,66.77
2022-12-13T09:59:20.126Z,66.00
2022-12-13T10:01:48.236Z,66.16
2022-12-13T10:04:18.043Z,66.68
2022-12-13T10:06:47.193Z,65.90
2022-12-13T10:09:15.780Z,65.53
2022-12-13T10:11:51.711Z,65.14
2022-12-13T10:14:26.648Z,65.20
2022-12-13T10:16:58.926Z,65.19
2022-12-13T10:19:34.891Z,64.91
2022-12-13T10:22:04.657Z,64.11
2022-12-13T10:24:50.310Z,64.60
2022-12-13T10:27:20.711Z,64.60
2022-12-13T10:30:01.127Z,63.94
2022-12-13T10:32:29.406Z,65.47
2022-12-13T10:35:23.520Z,64.60
2022-12-13T10:37:51.834Z,64.69
2022-12-13T10:40:34.264Z,63.90
2022-12-13T10:43:24.420Z,64.74
2022-12-13T10:46:00.495Z,64.49
2022-12-13T10:48:38.907Z,64.55
2022-12-13T10:51:11.360Z,63.95
2022-12-13T10:53:47.283Z,64.58
2022-12-13T10:56:23.083Z,63.84
2022-12-13T10:59:16.544Z,63.84
2022-12-13T11:01:45.828Z,63.03
2022-12-13T11:04:27.453Z,63.52
2022-12-13T11:06:59.232Z,64.09
2022-12-13T11:09:38.491Z,63.21
2022-12-13T11:12:15.660Z,63.56
2022-12-13T11:14:51.681Z,63.39
2022-12-13T11:17:23.287Z,63.44
2022-12-13T11:19:54.247Z,63.74
2022-12-13T11:22:26.880Z,63.11
2022-12-13T11:25:01.654Z,64.11
2022-12-13T11:27:55.456Z,63.31
2022-12-13T11:30:26.040Z,64.51
2022-12-13T11:33:15.940Z,63.29
2022-12-13T11:36:01.686Z,63.63
2022-12-13T11:38:37.559Z,63.78
2022-12-13T11:41:13.634Z,63.12
2022-12-13T11:44:06.886Z,63.40
2022-12-13T11:46:41.532Z,63.23
2022-12-13T11:49:18.095Z,63.75
2022-12-13T11:51:51.724Z,62.69
2022-12-13T11:54:30.084Z,62.39
2022-12-13T11:57:01.051Z,63.09
2022-12-13T11:59:39.626Z,63.12
2022-12-13T12:02:17.805Z,62.79
2022-12-13T12:04:53.599Z,62.21
2022-12-13T12:07:33.206Z,62.13
2022-12-13T12:10:16.749Z,62.41
2022-12-13T12:12:50.609Z,61.94
2022-12-13T12:15:27.138Z,62.09
2022-12-13T12:17:58.961Z,62.83
2022-12-13T12:20:40.713Z,62.10
2022-12-13T12:23:19.446Z,62.41
2022-12-13T12:25:56.984Z,62.58
2022-12-13T12:28:32.694Z,62.22
2022-12-13T12:31:10.095Z,62.49
2022-12-13T12:33:47.757Z,62.49
2022-12-13T12:36:35.218Z,62.52
2022-12-13T12:39:36.564Z,61.59
2022-12-13T12:42:56.559Z,61.55
2022-12-13T12:45:55.841Z,62.51
2022-12-13T12:51:34.823Z,62.52
2022-12-13T12:54:21.752Z,62.35
2022-12-13T12:56:59.104Z,62.43
2022-12-13T12:59:36.029Z,63.05
2022-12-13T13:02:15.564Z,62.67
2022-12-13T13:04:47.522Z,63.36
2022-12-13T13:07:22.361Z,62.82
2022-12-13T13:09:55.121Z,63.13
2022-12-13T13:12:30.035Z,63.06
2022-12-13T13:15:00.756Z,63.15
2022-12-13T13:17:48.353Z,62.40
2022-12-13T13:20:23.437Z,62.89
2022-12-13T13:23:10.457Z,62.68
2022-12-13T13:26:07.561Z,62.18
2022-12-13T13:28:28.754Z,62.28
2022-12-13T13:31:08.277Z,61.99
2022-12-13T13:33:46.309Z,62.99
2022-12-13T13:36:47.439Z,63.32
2022-12-13T13:39:18.142Z,62.51
2022-12-13T13:41:58.308Z,62.97
2022-12-13T13:44:53.847Z,63.40
2022-12-13T13:47:49.580Z,62.96
2022-12-13T13:51:01.676Z,63.35
2022-12-13T13:53:56.001Z,63.56
2022-12-13T13:56:49.986Z,63.47
2022-12-13T14:00:12.030Z,64.22
2022-12-13T14:03:34.183Z,63.97
2022-12-13T14:06:41.851Z,63.60
2022-12-13T14:09:25.805Z,63.76
2022-12-13T14:12:34.962Z,63.56
2022-12-13T14:15:51.207Z,64.16
2022-12-13T14:18:53.578Z,63.57
2022-12-13T14:21:32.464Z,64.26
2022-12-13T14:24:23.001Z,64.39
2022-12-13T14:27:11.377Z,64.72
2022-12-13T14:29:48.498Z,64.31
2022-12-13T14:32:29.128Z,64.30
2022-12-13T14:34:57.732Z,64.29
2022-12-13T14:37:30.522Z,64.23
2022-12-13T14:39:59.091Z,64.18
2022-12-13T14:42:30.758Z,64.64
2022-12-13T14:45:19.706Z,64.33
2022-12-13T14:47:47.631Z,64.27
2022-12-13T14:50:19.030Z,64.59
2022-12-13T14:52:48.660Z,65.70
2022-12-13T14:55:25.664Z,65.20
2022-12-13T14:57:57.017Z,64.75
2022-12-13T15:00:29.663Z,65.51
2022-12-13T15:02:59.867Z,65.50
2022-12-13T15:05:34.445Z,65.26
2022-12-13T15:08:10.390Z,66.11
2022-12-13T15:10:42.109Z,65.66
2022-12-13T15:13:29.708Z,66.00
2022-12-13T15:16:01.314Z,65.41
2022-12-13T15:18:30.683Z,66.32
2022-12-13T15:20:58.976Z,66.07
2022-12-13T15:23:31.230Z,66.85
2022-12-13T15:26:02.128Z,66.80
2022-12-13T15:28:35.062Z,67.36
2022-12-13T15:31:05.098Z,67.13
2022-12-13T15:33:39.314Z,67.54
2022-12-13T15:36:16.162Z,67.93
2022-12-13T15:38:51.772Z,67.74
2022-12-13T15:41:22.861Z,68.33
2022-12-13T15:43:55.692Z,68.60
2022-12-13T15:46:27.758Z,69.34
2022-12-13T15:48:57.260Z,69.83
2022-12-13T15:51:29.723Z,69.86
2022-12-13T15:54:07.842Z,70.55
2022-12-13T15:56:38.792Z,70.36
2022-12-13T15:59:26.576Z,70.55
2022-12-13T16:01:58.571Z,70.41
2022-12-13T16:04:29.775Z,70.51
2022-12-13T16:06:59.312Z,70.66
2022-12-13T16:09:30.902Z,71.66
2022-12-13T16:12:02.672Z,71.62
2022-12-13T16:14:49.208Z,71.58
2022-12-13T16:17:24.558Z,71.62
2022-12-13T16:19:53.658Z,72.12
2022-12-13T16:22:23.749Z,72.02
2022-12-13T16:24:52.752Z,72.29
2022-12-13T16:27:21.077Z,72.93
2022-12-13T16:29:50.334Z,72.75
2022-12-13T16:32:18.444Z,72.41
2022-12-13T16:34:46.324Z,72.88
2022-12-13T16:37:26.053Z,72.91
2022-12-13T16:39:55.344Z,74.16
2022-12-13T16:42:26.460Z,74.25
2022-12-13T16:45:24.807Z,74.05
2022-12-13T16:47:49.112Z,74.14
2022-12-13T16:50:19.574Z,73.98
2022-12-13T16:52:47.728Z,73.62
2022-12-13T16:55:15.722Z,73.93
2022-12-13T16:57:43.648Z,73.90
2022-12-13T17:00:15.352Z,73.74
2022-12-13T17:02:43.281Z,74.08
2022-12-13T17:05:11.343Z,73.50
2022-12-13T17:07:39.645Z,74.89
2022-12-13T17:10:09.423Z,74.08
2022-12-13T17:12:37.569Z,74.22
2022-12-13T17:15:06.682Z,74.63
2022-12-13T17:17:39.208Z,74.99
2022-12-13T17:20:08.843Z,74.99
2022-12-13T17:22:37.188Z,74.35
2022-12-13T17:25:07.815Z,74.32
2022-12-13T17:27:36.444Z,74.16
2022-12-13T17:30:04.880Z,74.29
2022-12-13T17:32:32.876Z,73.48
2022-12-13T17:35:02.964Z,74.73
2022-12-13T17:37:32.931Z,74.40
2022-12-13T17:40:01.160Z,74.99
2022-12-13T17:42:29.142Z,75.17
2022-12-13T17:44:57.507Z,74.93
2022-12-13T17:47:27.794Z,74.73
2022-12-13T17:49:55.832Z,74.64
2022-12-13T17:52:26.092Z,75.36
2022-12-13T17:54:56.685Z,75.56
2022-12-13T17:57:26.057Z,75.56
2022-12-13T17:59:54.280Z,75.51
2022-12-13T18:02:23.111Z,75.92
2022-12-13T18:04:51.505Z,76.03
2022-12-13T18:07:19.885Z,75.73
2022-12-13T18:09:50.433Z,75.95
2022-12-13T18:12:19.103Z,76.26
2022-12-13T18:14:47.291Z,76.34
2022-12-13T18:17:15.454Z,76.40
2022-12-13T18:19:43.469Z,76.20
2022-12-13T18:22:12.438Z,76.08
2022-12-13T18:24:40.536Z,76.40
2022-12-13T18:27:10.300Z,76.80
2022-12-13T18:29:42.716Z,76.66
2022-12-13T18:32:24.078Z,76.67
2022-12-13T18:34:54.730Z,76.71
2022-12-13T18:37:22.873Z,76.40
2022-12-13T18:39:54.790Z,76.72
2022-12-13T18:42:24.740Z,76.22
2022-12-13T18:44:54.810Z,76.01
2022-12-13T18:47:22.920Z,76.52
2022-12-13T18:49:54.528Z,76.62
2022-12-13T18:52:24.321Z,77.00
2022-12-13T18:54:54.716Z,76.86
2022-12-13T18:57:24.167Z,77.38
2022-12-13T18:59:54.301Z,77.63
2022-12-13T19:02:28.377Z,77.27
2022-12-13T19:05:00.684Z,77.41
2022-12-13T19:07:28.519Z,77.50
2022-12-13T19:09:56.447Z,76.58
2022-12-13T19:12:25.805Z,77.43
2022-12-13T19:14:54.600Z,77.12
2022-12-13T19:17:23.175Z,76.91
2022-12-13T19:19:51.826Z,76.98
2022-12-13T19:22:21.654Z,76.93
2022-12-13T19:24:49.513Z,76.67
2022-12-13T19:27:17.426Z,76.34
2022-12-13T19:29:46.580Z,77.18
2022-12-13T19:32:14.490Z,77.03
2022-12-13T19:34:42.490Z,76.68
2022-12-13T19:37:10.569Z,76.84
2022-12-13T19:39:38.786Z,76.70
2022-12-13T19:42:07.162Z,76.07
2022-12-13T19:44:35.299Z,76.64
2022-12-13T19:47:04.662Z,76.91
2022-12-13T19:49:32.810Z,77.06
2022-12-13T19:52:01.084Z,77.16
2022-12-13T19:54:29.015Z,76.65
2022-12-13T19:56:57.854Z,76.47
2022-12-13T19:59:30.436Z,76.87
2022-12-13T20:01:58.369Z,76.38
2022-12-13T20:04:27.794Z,76.34
2022-12-13T20:06:55.827Z,76.90
2022-12-13T20:09:23.975Z,76.31
2022-12-13T20:11:52.611Z,76.59
2022-12-13T20:14:20.923Z,76.24
2022-12-13T20:16:49.285Z,75.93
2022-12-13T20:19:18.104Z,76.15
2022-12-13T20:21:54.966Z,76.01
2022-12-13T20:24:25.995Z,75.91
2022-12-13T20:26:55.465Z,76.16
2022-12-13T20:29:24.951Z,76.19
2022-12-13T20:31:53.845Z,76.39
2022-12-13T20:34:25.720Z,76.38
2022-12-13T20:36:55.288Z,75.88
2022-12-13T20:39:24.470Z,75.85
2022-12-13T20:41:54.815Z,75.98
2022-12-13T20:44:45.507Z,76.22
2022-12-13T20:47:13.910Z,76.05
2022-12-13T20:49:42.917Z,76.20
2022-12-13T20:52:20.023Z,75.77
2022-12-13T20:54:50.860Z,75.97
2022-12-13T20:57:19.652Z,76.10
2022-12-13T20:59:50.590Z,75.56
2022-12-13T21:02:18.765Z,75.81
2022-12-13T21:04:48.734Z,75.12
2022-12-13T21:07:40.867Z,75.75
2022-12-13T21:10:12.164Z,75.60
2022-12-13T21:12:40.652Z,75.98
2022-12-13T21:15:10.316Z,75.50
2022-12-13T21:17:39.195Z,75.26
2022-12-13T21:20:07.979Z,75.20
2022-12-13T21:22:39.085Z,75.42
2022-12-13T21:25:08.594Z,75.27
2022-12-13T21:27:36.923Z,75.42
2022-12-13T21:30:05.445Z,74.89
2022-12-13T21:32:33.639Z,75.36
2022-12-13T21:35:02.876Z,75.37
2022-12-13T21:37:33.323Z,75.56
2022-12-13T21:40:02.670Z,74.79
2022-12-13T21:42:30.528Z,74.93
2022-12-13T21:45:02.128Z,74.38
2022-12-13T21:47:30.695Z,75.16
2022-12-13T21:49:58.553Z,75.07
2022-12-13T21:52:26.546Z,75.44
2022-12-13T21:55:15.276Z,75.51
2022-12-13T21:58:07.745Z,74.83
2022-12-13T22:00:36.637Z,75.37
2022-12-13T22:03:05.277Z,75.33
2022-12-13T22:05:33.288Z,75.40
2022-12-13T22:08:01.283Z,75.00
2022-12-13T22:10:29.414Z,75.43
2022-12-13T22:12:59.724Z,74.88
2022-12-13T22:15:28.097Z,74.48
2022-12-13T22:17:56.121Z,74.94
2022-12-13T22:20:24.568Z,74.73
2022-12-13T22:22:52.682Z,74.25
2022-12-13T22:25:21.085Z,74.83
2022-12-13T22:27:48.942Z,74.77
2022-12-13T22:30:18.313Z,74.54
2022-12-13T22:32:46.173Z,74.87
2022-12-13T22:35:14.648Z,75.17
2022-12-13T22:37:42.620Z,75.15
2022-12-13T22:40:11.999Z,74.86
2022-12-13T22:42:39.990Z,75.22
2022-12-13T22:45:08.966Z,74.96
2022-12-13T22:47:38.532Z,74.46
2022-12-13T22:50:07.439Z,73.99
2022-12-13T22:52:35.396Z,74.47
2022-12-13T22:55:03.897Z,74.36
2022-12-13T22:57:32.421Z,74.51
2022-12-13T23:00:00.601Z,73.93
2022-12-13T23:02:28.531Z,74.45
2022-12-13T23:04:58.081Z,73.71
2022-12-13T23:07:26.325Z,74.55
2022-12-13T23:09:54.644Z,73.89
2022-12-13T23:12:40.512Z,74.05
2022-12-13T23:15:09.751Z,73.99
2022-12-13T23:17:37.606Z,74.03
2022-12-13T23:20:08.645Z,74.40
2022-12-13T23:22:36.545Z,73.56
2022-12-13T23:25:04.669Z,74.06
2022-12-13T23:27:32.634Z,73.25
2022-12-13T23:30:00.753Z,73.25
2022-12-13T23:32:28.725Z,73.02
2022-12-13T23:34:56.750Z,73.11
2022-12-13T23:37:26.286Z,72.92
2022-12-13T23:39:54.256Z,72.51
2022-12-13T23:42:22.153Z,72.69
2022-12-13T23:44:50.001Z,72.42
2022-12-13T23:47:23.112Z,72.07
2022-12-13T23:49:51.006Z,72.44
2022-12-13T23:52:18.848Z,72.30
2022-12-13T23:54:48.159Z,73.07
2022-12-13T23:57:16.360Z,73.06
2022-12-13T23:59:44.380Z,72.92
